Time;durP1;ratioP1;P1;durP2;ratioP2;P2;SDS_P1;SDS_P2;PMS_P1;PMS_P2;Temp;Humidity;BMP_temperature;BMP_pressure;BME280_temperature;BME280_humidity;BME280_pressure;Samples;Min_cycle;Max_cycle;Signal;HPM_P1;HPM_P2
2021/09/15 00:00:17;;;;;;;11.10;9.70;;;28.50;99.90;;;;;;4190269;28;20048;-66
2021/09/15 00:02:25;;;;;;;12.35;10.23;;;28.50;99.90;;;;;;4182304;28;20052;-66
2021/09/15 00:04:29;;;;;;;12.02;9.70;;;28.60;99.90;;;;;;4189005;28;20052;-66
2021/09/15 00:06:37;;;;;;;13.30;10.00;;;28.60;99.90;;;;;;4189994;28;20045;-66
2021/09/15 00:08:42;;;;;;;11.27;9.93;;;28.60;99.90;;;;;;4191875;28;20037;-66
2021/09/15 00:10:47;;;;;;;11.60;9.48;;;28.70;99.90;;;;;;4186066;28;20117;-66
2021/09/15 00:12:51;;;;;;;11.95;9.77;;;28.70;99.90;;;;;;4182011;28;20049;-67
2021/09/15 00:14:58;;;;;;;15.48;10.38;;;28.70;99.90;;;;;;4188982;28;20584;-67
2021/09/15 00:17:04;;;;;;;13.35;9.68;;;28.70;99.90;;;;;;4192946;28;20052;-68
2021/09/15 00:19:08;;;;;;;13.15;9.85;;;28.70;99.90;;;;;;4193059;28;20139;-67
2021/09/15 00:21:13;;;;;;;15.43;10.23;;;28.70;99.90;;;;;;4168256;28;20594;-68
2021/09/15 00:23:17;;;;;;;14.15;10.73;;;28.80;99.90;;;;;;4188106;28;20052;-68
2021/09/15 00:25:22;;;;;;;14.18;9.77;;;28.80;99.90;;;;;;4192734;28;20549;-68
2021/09/15 00:27:27;;;;;;;13.38;9.70;;;28.80;99.90;;;;;;4194375;28;20441;-68
2021/09/15 00:29:32;;;;;;;11.90;10.05;;;28.90;99.90;;;;;;4176389;28;20053;-68
2021/09/15 00:31:37;;;;;;;11.60;9.35;;;28.80;99.90;;;;;;4181579;28;20074;-68
2021/09/15 00:33:41;;;;;;;13.32;9.70;;;28.80;99.90;;;;;;4192451;28;20060;-68
2021/09/15 00:35:46;;;;;;;13.80;9.38;;;28.80;99.90;;;;;;4191563;28;20053;-68
2021/09/15 00:37:51;;;;;;;13.15;9.82;;;28.90;99.90;;;;;;4176960;28;20466;-68
2021/09/15 00:39:56;;;;;;;14.05;10.23;;;28.90;99.90;;;;;;4190586;28;20045;-68
2021/09/15 00:42:03;;;;;;;12.27;9.32;;;29.00;99.90;;;;;;4182185;28;20093;-68
2021/09/15 00:44:09;;;;;;;17.98;11.70;;;29.10;99.90;;;;;;4192856;28;20708;-68
2021/09/15 00:46:15;;;;;;;17.48;10.50;;;29.10;99.90;;;;;;4173889;28;20083;-68
2021/09/15 00:48:19;;;;;;;13.05;11.07;;;29.20;99.90;;;;;;4194576;28;20049;-68
2021/09/15 00:50:24;;;;;;;16.90;10.25;;;29.20;99.90;;;;;;4180051;28;20057;-68
2021/09/15 00:52:29;;;;;;;14.55;11.77;;;29.30;99.90;;;;;;4187999;28;20053;-68
2021/09/15 00:54:36;;;;;;;15.95;11.07;;;29.30;99.90;;;;;;4186883;28;20121;-68
2021/09/15 00:56:41;;;;;;;13.80;11.13;;;29.40;99.90;;;;;;4193966;28;20155;-68
2021/09/15 00:58:47;;;;;;;18.45;11.75;;;29.40;99.90;;;;;;4186276;28;20055;-68
2021/09/15 01:00:55;;;;;;;17.23;11.98;;;29.40;99.90;;;;;;4189044;28;20062;-68
2021/09/15 01:02:59;;;;;;;15.02;12.00;;;29.40;99.90;;;;;;4183839;28;20044;-67
2021/09/15 01:05:06;;;;;;;12.63;10.68;;;29.50;99.90;;;;;;4179768;28;20489;-68
2021/09/15 01:07:13;;;;;;;14.07;10.80;;;29.50;99.90;;;;;;4192576;28;20068;-68
2021/09/15 01:09:18;;;;;;;15.43;10.93;;;29.60;99.90;;;;;;4160831;28;20099;-68
2021/09/15 01:11:26;;;;;;;14.52;10.35;;;29.60;99.90;;;;;;4169532;28;21096;-68
2021/09/15 01:13:42;;;;;;;14.23;10.93;;;29.70;99.90;;;;;;4174956;28;20135;-67
2021/09/15 01:15:59;;;;;;;14.82;11.20;;;29.70;99.90;;;;;;4190294;28;20155;-67
2021/09/15 01:18:23;;;;;;;12.30;10.88;;;29.70;99.90;;;;;;4193127;28;20045;-67
2021/09/15 01:20:40;;;;;;;16.00;11.00;;;29.70;99.90;;;;;;4187802;28;20119;-67
2021/09/15 01:22:57;;;;;;;14.73;11.20;;;29.70;99.90;;;;;;4186418;28;20044;-67
2021/09/15 01:25:14;;;;;;;15.18;10.88;;;29.70;99.90;;;;;;4191356;28;20036;-67
2021/09/15 01:27:31;;;;;;;12.10;10.38;;;29.80;99.90;;;;;;4189231;28;20075;-67
2021/09/15 01:29:54;;;;;;;14.10;11.07;;;29.80;99.90;;;;;;4192019;28;20040;-67
2021/09/15 01:32:04;;;;;;;17.02;11.18;;;29.80;99.90;;;;;;4177514;28;20057;-67
2021/09/15 01:34:09;;;;;;;12.27;10.98;;;29.90;99.90;;;;;;4176186;28;20049;-67
2021/09/15 01:36:14;;;;;;;13.50;11.02;;;29.90;99.90;;;;;;4173617;28;20099;-67
2021/09/15 01:38:22;;;;;;;13.40;11.57;;;30.00;99.90;;;;;;4191835;28;20466;-67
2021/09/15 01:40:30;;;;;;;13.50;11.27;;;30.10;99.90;;;;;;4188343;28;20052;-67
2021/09/15 01:42:36;;;;;;;14.75;12.15;;;30.00;99.90;;;;;;4186410;28;20076;-67
2021/09/15 01:44:45;;;;;;;16.02;11.30;;;30.00;99.90;;;;;;4175437;28;20535;-67
2021/09/15 01:46:52;;;;;;;14.45;10.85;;;30.00;99.90;;;;;;4157380;28;20045;-67
2021/09/15 01:48:58;;;;;;;12.18;10.70;;;29.90;99.90;;;;;;4191342;28;20049;-67
2021/09/15 01:51:02;;;;;;;11.55;10.45;;;30.00;99.90;;;;;;4185809;28;20033;-67
2021/09/15 01:53:08;;;;;;;13.45;10.70;;;29.90;99.90;;;;;;4187533;28;20049;-67
2021/09/15 01:55:25;;;;;;;13.57;10.55;;;30.00;99.90;;;;;;4175584;28;20057;-68
2021/09/15 01:57:42;;;;;;;12.68;10.70;;;30.00;99.90;;;;;;4176428;28;20154;-68
2021/09/15 02:00:01;;;;;;;13.20;11.07;;;30.00;99.90;;;;;;4191432;28;20044;-67
2021/09/15 02:02:24;;;;;;;14.15;11.23;;;30.00;99.90;;;;;;4179634;28;20040;-67
2021/09/15 02:04:33;;;;;;;12.63;10.52;;;29.90;99.90;;;;;;4174522;28;20040;-67
2021/09/15 02:06:50;;;;;;;11.85;10.23;;;30.00;99.90;;;;;;4190929;28;20040;-66
2021/09/15 02:09:15;;;;;;;13.70;9.75;;;30.10;99.90;;;;;;4187668;28;20044;-67
2021/09/15 02:11:31;;;;;;;10.68;9.57;;;30.20;99.90;;;;;;4179597;28;20430;-67
2021/09/15 02:13:40;;;;;;;13.02;9.50;;;30.30;99.90;;;;;;4155932;28;20487;-67
2021/09/15 02:15:45;;;;;;;13.73;10.00;;;30.30;99.90;;;;;;4172681;28;20104;-67
2021/09/15 02:17:51;;;;;;;11.52;9.55;;;30.40;99.90;;;;;;4188111;28;20052;-67
2021/09/15 02:20:13;;;;;;;11.10;9.90;;;30.40;99.90;;;;;;4187001;28;20040;-67
2021/09/15 02:22:36;;;;;;;14.68;9.40;;;30.40;99.90;;;;;;4182543;28;20486;-67
2021/09/15 02:24:45;;;;;;;11.93;8.98;;;30.50;99.90;;;;;;4186374;28;20046;-67
2021/09/15 02:27:05;;;;;;;11.93;9.23;;;30.50;99.90;;;;;;4184945;28;20056;-67
2021/09/15 02:29:10;;;;;;;9.75;8.73;;;30.50;99.90;;;;;;4186482;28;20087;-67
2021/09/15 02:31:35;;;;;;;10.15;8.52;;;30.50;99.90;;;;;;4178285;28;20131;-67
2021/09/15 02:33:54;;;;;;;12.27;9.07;;;30.40;99.90;;;;;;4187813;28;20491;-66
2021/09/15 02:36:04;;;;;;;10.13;9.05;;;30.50;99.90;;;;;;4188830;28;20055;-66
2021/09/15 02:38:22;;;;;;;10.43;8.10;;;30.50;99.90;;;;;;4189247;28;20158;-65
2021/09/15 02:40:38;;;;;;;10.23;8.77;;;30.50;99.90;;;;;;4172702;28;20131;-65
2021/09/15 02:42:59;;;;;;;9.40;8.23;;;30.60;99.90;;;;;;4184228;28;20037;-66
2021/09/15 02:45:17;;;;;;;11.98;8.95;;;30.70;99.90;;;;;;4189642;28;20394;-66
2021/09/15 02:47:37;;;;;;;10.77;9.05;;;30.80;99.90;;;;;;4188073;28;20048;-66
2021/09/15 02:49:54;;;;;;;9.23;8.23;;;30.90;99.90;;;;;;4190141;28;20051;-66
2021/09/15 02:52:11;;;;;;;10.52;8.90;;;30.90;99.90;;;;;;4189183;28;20048;-66
2021/09/15 02:54:28;;;;;;;9.38;8.38;;;31.00;99.90;;;;;;4189739;28;20037;-66
2021/09/15 02:56:52;;;;;;;9.93;7.90;;;31.00;99.90;;;;;;4175969;28;20059;-67
2021/09/15 02:59:13;;;;;;;10.50;7.70;;;31.10;99.90;;;;;;4176096;28;20154;-66
2021/09/15 03:01:31;;;;;;;8.55;7.75;;;31.20;99.90;;;;;;4188816;28;20631;-68
2021/09/15 03:03:49;;;;;;;11.15;7.95;;;31.20;99.90;;;;;;4175661;28;20049;-67
2021/09/15 03:06:09;;;;;;;8.77;7.88;;;31.20;99.90;;;;;;4175240;28;20490;-67
2021/09/15 03:08:34;;;;;;;10.32;7.50;;;31.20;99.90;;;;;;4190898;28;20046;-67
2021/09/15 03:10:40;;;;;;;10.52;7.55;;;31.30;99.90;;;;;;4172164;28;20583;-68
2021/09/15 03:12:47;;;;;;;7.80;6.45;;;31.30;99.90;;;;;;4187049;28;20056;-68
2021/09/15 03:14:52;;;;;;;9.05;6.82;;;31.30;99.90;;;;;;4190111;28;20110;-67
2021/09/15 03:16:58;;;;;;;10.73;7.35;;;31.30;99.90;;;;;;4189541;28;20055;-67
2021/09/15 03:19:04;;;;;;;9.75;7.13;;;31.30;99.90;;;;;;4190238;28;20581;-66
2021/09/15 03:21:14;;;;;;;12.52;7.00;;;31.40;99.90;;;;;;4174379;28;20048;-66
2021/09/15 03:23:19;;;;;;;6.93;6.13;;;31.40;99.90;;;;;;4189594;28;20048;-67
2021/09/15 03:25:24;;;;;;;6.90;6.18;;;31.40;99.90;;;;;;4191431;28;20074;-67
2021/09/15 03:27:29;;;;;;;9.18;6.70;;;31.50;99.90;;;;;;4189879;28;20517;-67
2021/09/15 03:29:34;;;;;;;8.23;6.65;;;31.60;99.90;;;;;;4174340;28;20040;-66
2021/09/15 03:31:39;;;;;;;7.57;6.30;;;31.70;99.90;;;;;;4188916;28;20460;-67
2021/09/15 03:33:43;;;;;;;7.30;6.30;;;31.70;99.90;;;;;;4188563;28;20429;-67
2021/09/15 03:35:52;;;;;;;8.75;6.95;;;31.80;99.90;;;;;;4205864;28;20047;-67
2021/09/15 03:37:57;;;;;;;7.90;6.57;;;31.80;99.90;;;;;;4204929;28;20048;-67
2021/09/15 03:40:02;;;;;;;8.82;6.47;;;31.80;99.90;;;;;;4205406;28;20101;-67
2021/09/15 03:42:08;;;;;;;8.15;6.50;;;31.80;99.90;;;;;;4173165;28;20048;-67
2021/09/15 03:44:13;;;;;;;8.75;6.13;;;31.80;99.90;;;;;;4204158;28;20519;-67
2021/09/15 03:46:18;;;;;;;7.38;5.93;;;31.90;99.90;;;;;;4189883;28;20049;-67
2021/09/15 03:48:22;;;;;;;6.55;5.47;;;31.90;99.90;;;;;;4188519;28;20065;-67
2021/09/15 03:50:27;;;;;;;6.45;5.50;;;32.00;99.90;;;;;;4189511;28;20036;-67
2021/09/15 03:52:32;;;;;;;10.23;5.60;;;32.10;99.90;;;;;;4193134;28;20041;-67
2021/09/15 03:54:38;;;;;;;7.72;5.53;;;32.10;99.90;;;;;;4191904;28;20036;-67
2021/09/15 03:56:43;;;;;;;5.60;5.00;;;32.10;99.90;;;;;;4174673;28;20082;-67
2021/09/15 03:58:51;;;;;;;5.65;5.15;;;32.20;99.90;;;;;;4190380;28;20044;-67
2021/09/15 04:00:56;;;;;;;5.78;5.00;;;32.30;99.90;;;;;;4193228;28;20033;-67
2021/09/15 04:03:01;;;;;;;6.65;5.10;;;32.40;99.90;;;;;;4190317;28;20036;-67
2021/09/15 04:05:08;;;;;;;7.47;5.38;;;32.40;99.90;;;;;;4176304;28;20076;-67
2021/09/15 04:07:12;;;;;;;6.22;5.55;;;32.50;99.90;;;;;;4192999;28;20529;-68
2021/09/15 04:09:17;;;;;;;7.00;5.28;;;32.50;99.90;;;;;;4173660;28;20573;-67
2021/09/15 04:11:25;;;;;;;6.95;5.57;;;32.50;99.90;;;;;;4189935;28;20047;-67
2021/09/15 04:13:29;;;;;;;8.00;5.82;;;32.40;99.90;;;;;;4192582;28;20110;-67
2021/09/15 04:15:34;;;;;;;5.97;5.30;;;32.40;99.90;;;;;;4190787;28;20547;-68
2021/09/15 04:17:39;;;;;;;8.20;5.20;;;32.30;99.90;;;;;;4205212;28;20048;-67
2021/09/15 04:19:44;;;;;;;6.43;5.43;;;32.30;99.90;;;;;;4191387;28;20060;-67
2021/09/15 04:21:49;;;;;;;5.47;4.78;;;32.30;99.90;;;;;;4194378;28;20048;-67
2021/09/15 04:32:56;;;;;;;7.15;5.50;;;32.50;99.90;;;;;;4207045;28;20122;-65
2021/09/15 04:35:03;;;;;;;6.03;5.13;;;32.60;99.90;;;;;;4191918;28;20124;-66
2021/09/15 04:37:08;;;;;;;6.20;4.53;;;32.70;99.90;;;;;;4176971;28;20044;-66
2021/09/15 04:39:18;;;;;;;9.02;5.40;;;32.80;99.90;;;;;;4192129;28;20087;-66
2021/09/15 04:41:24;;;;;;;6.47;4.82;;;32.90;99.90;;;;;;4191867;28;20044;-66
2021/09/15 04:43:29;;;;;;;6.65;4.90;;;33.00;99.90;;;;;;4193949;28;20036;-66
2021/09/15 04:45:36;;;;;;;5.65;4.43;;;33.00;99.90;;;;;;4174268;28;20044;-66
2021/09/15 04:47:40;;;;;;;5.32;4.82;;;33.10;99.90;;;;;;4192955;28;20045;-66
2021/09/15 04:49:45;;;;;;;6.05;5.13;;;32.90;99.90;;;;;;4192045;28;20060;-66
2021/09/15 04:51:49;;;;;;;9.77;7.00;;;32.90;99.90;;;;;;4192352;28;20040;-66
2021/09/15 04:53:55;;;;;;;14.30;9.82;;;32.80;99.90;;;;;;4192104;28;20498;-67
2021/09/15 04:56:00;;;;;;;18.50;12.65;;;32.80;99.90;;;;;;4205745;28;20511;-66
2021/09/15 04:58:06;;;;;;;17.38;11.27;;;33.00;99.90;;;;;;4190571;28;20048;-66
2021/09/15 05:00:13;;;;;;;9.38;7.18;;;33.10;99.90;;;;;;4126616;28;20723;-67
2021/09/15 05:02:29;;;;;;;7.97;5.53;;;33.20;99.90;;;;;;4177119;28;20494;-65
2021/09/15 05:04:40;;;;;;;6.88;5.07;;;33.20;99.90;;;;;;4192771;28;20045;-66
2021/09/15 05:06:58;;;;;;;6.40;5.03;;;33.30;99.90;;;;;;4177225;28;20083;-67
2021/09/15 05:09:03;;;;;;;6.03;4.90;;;33.30;99.90;;;;;;4191840;28;20399;-67
2021/09/15 05:11:14;;;;;;;9.48;5.00;;;33.40;99.90;;;;;;4204626;28;20044;-66
2021/09/15 05:13:19;;;;;;;5.88;4.95;;;33.40;99.90;;;;;;4195008;28;20523;-67
2021/09/15 05:15:25;;;;;;;6.95;5.28;;;33.40;99.90;;;;;;4194953;28;20041;-67
2021/09/15 05:17:32;;;;;;;6.20;5.63;;;33.30;99.90;;;;;;4194564;28;20048;-66
2021/09/15 05:19:37;;;;;;;6.78;4.82;;;33.30;99.90;;;;;;4194612;28;20086;-68
2021/09/15 05:21:42;;;;;;;5.43;4.68;;;33.20;99.90;;;;;;4195154;28;20045;-66
2021/09/15 05:23:48;;;;;;;5.38;4.13;;;33.10;99.90;;;;;;4208828;28;20059;-66
2021/09/15 05:25:52;;;;;;;4.40;3.90;;;33.20;99.90;;;;;;4194080;28;20045;-66
2021/09/15 05:27:59;;;;;;;5.25;4.18;;;33.30;99.90;;;;;;4210362;28;20444;-67
2021/09/15 05:30:07;;;;;;;4.75;4.10;;;33.40;99.90;;;;;;4192523;28;20332;-66
2021/09/15 05:32:16;;;;;;;4.90;4.40;;;33.40;99.90;;;;;;4179343;28;20049;-67
2021/09/15 05:34:21;;;;;;;5.63;4.47;;;33.40;99.90;;;;;;4192323;28;20045;-67
2021/09/15 05:36:27;;;;;;;4.55;4.07;;;33.40;99.90;;;;;;4205683;28;20044;-67
2021/09/15 05:38:32;;;;;;;11.07;4.30;;;33.50;99.90;;;;;;4192152;28;20044;-68
2021/09/15 05:40:50;;;;;;;5.90;4.43;;;33.50;99.90;;;;;;4191491;28;20414;-68
2021/09/15 05:42:54;;;;;;;7.03;4.18;;;33.50;99.90;;;;;;4193045;28;20052;-68
2021/09/15 05:45:03;;;;;;;6.47;3.92;;;33.50;99.90;;;;;;4176822;28;20064;-68
2021/09/15 05:47:10;;;;;;;5.32;3.72;;;33.50;99.90;;;;;;4193507;28;20040;-68
2021/09/15 05:49:15;;;;;;;3.80;3.40;;;33.60;99.90;;;;;;4192389;28;20068;-67
2021/09/15 05:51:21;;;;;;;4.78;4.10;;;33.60;99.90;;;;;;4192963;28;20613;-67
2021/09/15 05:53:25;;;;;;;6.40;3.88;;;33.70;99.90;;;;;;4176286;28;20045;-67
2021/09/15 05:55:29;;;;;;;4.40;3.45;;;33.70;99.90;;;;;;4192432;28;20104;-67
2021/09/15 05:57:34;;;;;;;4.00;3.40;;;33.70;99.90;;;;;;4175150;28;20499;-67
2021/09/15 05:59:40;;;;;;;4.10;3.58;;;33.80;99.90;;;;;;4175637;28;20049;-68
2021/09/15 06:01:46;;;;;;;4.25;3.78;;;33.80;99.90;;;;;;4223657;28;20394;-67
2021/09/15 06:03:53;;;;;;;4.95;4.00;;;33.90;99.90;;;;;;4209440;28;20040;-68
2021/09/15 06:06:17;;;;;;;4.55;3.70;;;33.90;99.90;;;;;;4192376;28;20491;-68
2021/09/15 06:08:22;;;;;;;5.97;3.70;;;33.90;99.90;;;;;;4191674;28;20040;-68
2021/09/15 06:10:27;;;;;;;5.32;3.90;;;33.90;99.90;;;;;;4190552;28;20075;-67
2021/09/15 06:12:31;;;;;;;6.75;3.85;;;33.90;99.90;;;;;;4191308;28;20434;-67
2021/09/15 06:14:37;;;;;;;4.70;3.75;;;33.80;99.90;;;;;;4174490;28;20095;-68
2021/09/15 06:16:41;;;;;;;6.53;3.63;;;33.80;99.90;;;;;;4192071;28;20052;-68
2021/09/15 06:18:46;;;;;;;4.68;3.10;;;33.80;99.90;;;;;;4198641;28;20068;-67
2021/09/15 06:21:10;;;;;;;3.78;3.40;;;33.80;99.90;;;;;;4185396;28;20047;-69
2021/09/15 06:23:39;;;;;;;5.25;3.58;;;33.90;99.90;;;;;;4185254;28;20399;-68
2021/09/15 06:25:49;;;;;;;5.63;3.58;;;34.00;99.90;;;;;;4161868;28;20041;-68
2021/09/15 06:27:55;;;;;;;5.10;3.13;;;34.00;99.90;;;;;;4192013;28;20125;-68
2021/09/15 06:30:00;;;;;;;6.88;3.88;;;34.00;99.90;;;;;;4188491;28;20372;-68
2021/09/15 06:32:05;;;;;;;4.55;3.17;;;33.90;99.90;;;;;;4191529;28;20067;-68
2021/09/15 06:34:09;;;;;;;4.43;3.42;;;33.90;99.90;;;;;;4192475;28;20450;-68
2021/09/15 06:36:15;;;;;;;5.35;3.55;;;34.00;99.90;;;;;;4187250;28;20068;-67
2021/09/15 06:38:20;;;;;;;4.68;3.70;;;34.00;99.90;;;;;;4187647;28;20110;-67
2021/09/15 06:40:24;;;;;;;8.13;3.38;;;34.00;99.90;;;;;;4190679;28;21220;-67
2021/09/15 06:42:29;;;;;;;6.47;3.75;;;34.10;99.90;;;;;;4175319;28;20155;-68
2021/09/15 06:44:34;;;;;;;4.65;3.42;;;34.10;99.90;;;;;;4191302;28;20040;-68
2021/09/15 06:46:38;;;;;;;7.35;3.30;;;34.10;99.90;;;;;;4191613;28;20055;-68
2021/09/15 06:48:43;;;;;;;4.70;3.00;;;34.20;99.90;;;;;;4192582;28;20051;-68
2021/09/15 06:50:47;;;;;;;3.53;3.20;;;34.30;99.90;;;;;;4182409;28;20052;-68
2021/09/15 06:52:52;;;;;;;4.07;3.20;;;34.30;99.90;;;;;;4191714;28;20036;-69
2021/09/15 06:54:57;;;;;;;6.85;3.50;;;34.40;99.90;;;;;;4191418;28;20044;-68
2021/09/15 06:57:02;;;;;;;6.13;3.40;;;34.40;99.90;;;;;;4192319;28;20040;-68
2021/09/15 06:59:07;;;;;;;4.88;3.40;;;34.40;99.90;;;;;;4190739;28;20122;-68
2021/09/15 07:01:12;;;;;;;4.88;3.45;;;34.30;99.90;;;;;;4186849;28;20082;-68
2021/09/15 07:03:17;;;;;;;4.18;3.33;;;34.20;99.90;;;;;;4185083;28;20056;-69
2021/09/15 07:05:22;;;;;;;6.05;3.40;;;34.20;99.90;;;;;;4183832;28;20069;-69
2021/09/15 07:07:27;;;;;;;5.07;3.60;;;34.20;99.90;;;;;;4180178;28;20532;-67
2021/09/15 07:09:33;;;;;;;4.10;3.30;;;34.10;99.90;;;;;;4192367;28;20052;-67
2021/09/15 07:11:38;;;;;;;6.40;3.20;;;34.10;99.90;;;;;;4207442;28;20770;-68
2021/09/15 07:13:43;;;;;;;6.50;3.40;;;34.00;99.90;;;;;;4192175;28;20546;-68
2021/09/15 07:15:47;;;;;;;4.85;3.40;;;34.00;99.90;;;;;;4190933;28;20044;-68
2021/09/15 07:17:53;;;;;;;4.38;3.30;;;33.90;99.90;;;;;;4189667;28;20094;-67
2021/09/15 07:19:59;;;;;;;3.67;3.08;;;33.80;99.90;;;;;;4179262;28;20336;-68
2021/09/15 07:22:03;;;;;;;4.80;2.80;;;33.80;99.90;;;;;;4207986;28;20044;-69
2021/09/15 07:24:08;;;;;;;3.80;2.92;;;33.70;99.90;;;;;;4191711;28;20049;-70
2021/09/15 07:26:13;;;;;;;16.00;4.40;;;33.70;99.90;;;;;;4193762;28;20037;-68
2021/09/15 07:28:18;;;;;;;15.15;4.45;;;33.60;99.90;;;;;;4178099;28;20092;-67
2021/09/15 07:30:22;;;;;;;7.03;3.60;;;33.60;99.90;;;;;;4185622;28;20059;-68
2021/09/15 07:32:27;;;;;;;6.88;3.33;;;33.50;99.90;;;;;;4195794;28;20454;-68
2021/09/15 07:34:32;;;;;;;4.03;2.92;;;33.50;99.90;;;;;;4192923;28;20367;-68
2021/09/15 07:36:39;;;;;;;4.10;3.15;;;33.40;99.90;;;;;;4192037;28;20340;-69
2021/09/15 07:38:44;;;;;;;4.50;3.15;;;33.30;99.90;;;;;;4192783;28;20072;-68
2021/09/15 07:40:49;;;;;;;3.40;2.72;;;33.30;99.90;;;;;;4195583;28;20053;-68
2021/09/15 07:42:53;;;;;;;3.47;2.53;;;33.20;99.90;;;;;;4192875;28;20058;-69
2021/09/15 07:44:58;;;;;;;5.00;3.33;;;33.20;99.90;;;;;;4193643;28;20040;-67
2021/09/15 07:47:03;;;;;;;4.80;2.90;;;33.20;99.90;;;;;;4193389;28;20032;-67
2021/09/15 07:49:08;;;;;;;33.95;11.25;;;33.10;99.90;;;;;;4186421;28;20048;-68
2021/09/15 07:51:13;;;;;;;28.45;9.05;;;33.10;99.90;;;;;;4196678;28;20095;-68
2021/09/15 07:53:20;;;;;;;21.40;6.10;;;33.10;99.90;;;;;;4195785;28;20060;-69
2021/09/15 07:55:26;;;;;;;6.80;3.42;;;33.00;99.90;;;;;;4195845;28;20044;-68
2021/09/15 07:57:30;;;;;;;8.10;3.85;;;33.00;99.90;;;;;;4193910;28;20445;-68
2021/09/15 07:59:36;;;;;;;9.02;3.80;;;33.00;99.90;;;;;;4196149;28;20048;-68
2021/09/15 08:01:40;;;;;;;6.80;3.50;;;32.90;99.90;;;;;;4194326;28;20044;-68
2021/09/15 08:03:45;;;;;;;5.53;3.30;;;32.90;99.90;;;;;;4194937;28;20074;-69
2021/09/15 08:05:50;;;;;;;8.38;3.30;;;32.90;99.90;;;;;;4177575;28;20083;-68
2021/09/15 08:07:54;;;;;;;6.47;3.30;;;32.90;99.90;;;;;;4195864;28;20056;-68
2021/09/15 08:09:59;;;;;;;7.25;3.67;;;32.90;99.90;;;;;;4186905;28;20339;-68
2021/09/15 08:12:05;;;;;;;4.63;3.20;;;32.90;99.90;;;;;;4180163;28;20080;-67
2021/09/15 08:14:10;;;;;;;9.27;3.30;;;32.90;99.90;;;;;;4194264;28;20045;-67
2021/09/15 08:16:15;;;;;;;6.47;3.30;;;32.90;99.90;;;;;;4188048;28;20064;-67
2021/09/15 08:18:19;;;;;;;6.07;3.50;;;32.80;99.90;;;;;;4196070;28;20518;-67
2021/09/15 08:20:34;;;;;;;7.18;4.00;;;32.70;99.90;;;;;;4217118;28;20406;-67
2021/09/15 08:22:39;;;;;;;5.93;3.78;;;32.70;99.90;;;;;;4192012;28;20059;-68
2021/09/15 08:24:44;;;;;;;4.47;3.78;;;32.70;99.90;;;;;;4195065;28;20037;-68
2021/09/15 08:26:48;;;;;;;3.92;3.33;;;32.70;99.90;;;;;;4192663;28;20143;-68
2021/09/15 08:28:53;;;;;;;7.55;4.00;;;32.60;99.90;;;;;;4192637;28;20074;-67
2021/09/15 08:30:57;;;;;;;9.63;3.58;;;32.60;99.90;;;;;;4194697;28;20102;-67
2021/09/15 08:33:02;;;;;;;8.95;3.78;;;32.60;99.90;;;;;;4192907;28;20103;-67
2021/09/15 08:35:09;;;;;;;4.70;4.10;;;32.70;99.90;;;;;;4190599;28;20052;-67
2021/09/15 08:37:13;;;;;;;7.07;4.28;;;32.60;99.90;;;;;;4192669;28;20067;-67
2021/09/15 08:39:17;;;;;;;9.25;5.10;;;32.70;99.90;;;;;;4191831;28;20074;-67
2021/09/15 08:41:22;;;;;;;5.78;3.78;;;32.70;99.90;;;;;;4192499;28;20047;-68
2021/09/15 08:43:26;;;;;;;9.77;4.80;;;32.70;99.90;;;;;;4176545;28;20122;-67
2021/09/15 08:45:31;;;;;;;5.65;3.80;;;32.70;99.90;;;;;;4193061;28;20071;-67
2021/09/15 08:47:39;;;;;;;4.82;3.60;;;32.70;99.90;;;;;;4192392;28;20037;-68
2021/09/15 08:49:44;;;;;;;7.68;4.10;;;32.70;99.90;;;;;;4192100;28;20548;-69
2021/09/15 08:51:50;;;;;;;7.32;3.90;;;32.70;99.90;;;;;;4176854;28;20048;-68
2021/09/15 08:53:54;;;;;;;5.82;4.00;;;32.70;99.90;;;;;;4194016;28;20122;-68
2021/09/15 08:56:01;;;;;;;7.05;3.60;;;32.70;99.90;;;;;;4174951;28;20529;-68
2021/09/15 08:58:05;;;;;;;10.77;4.05;;;32.70;99.90;;;;;;4176104;28;20136;-68
2021/09/15 09:00:10;;;;;;;5.20;3.35;;;32.70;99.90;;;;;;4193131;28;20088;-68
2021/09/15 09:02:15;;;;;;;6.30;4.35;;;32.70;99.90;;;;;;4191424;28;20445;-68
2021/09/15 09:04:20;;;;;;;5.43;3.95;;;32.70;99.90;;;;;;4193002;28;20037;-68
2021/09/15 09:06:32;;;;;;;7.13;3.75;;;32.70;99.90;;;;;;4193649;28;20076;-68
2021/09/15 09:08:41;;;;;;;4.87;3.90;;;32.70;99.90;;;;;;4191827;28;20518;-68
2021/09/15 09:10:53;;;;;;;6.63;4.15;;;32.70;99.90;;;;;;4192541;28;20585;-68
2021/09/15 09:12:58;;;;;;;7.30;4.38;;;32.60;99.90;;;;;;4177029;28;20079;-68
2021/09/15 09:15:15;;;;;;;5.88;4.20;;;32.60;99.90;;;;;;4192039;28;20148;-69
2021/09/15 09:17:27;;;;;;;6.05;4.00;;;32.70;99.90;;;;;;4191277;28;20514;-69
2021/09/15 09:19:31;;;;;;;5.95;4.05;;;32.60;99.90;;;;;;4192148;28;20051;-68
2021/09/15 09:21:42;;;;;;;6.65;4.15;;;32.60;99.90;;;;;;4190001;28;20045;-68
2021/09/15 09:23:47;;;;;;;6.70;4.25;;;32.60;99.90;;;;;;4189888;28;20147;-68
2021/09/15 09:25:58;;;;;;;6.57;4.35;;;32.60;99.90;;;;;;4189215;28;20056;-68
2021/09/15 09:28:20;;;;;;;8.05;4.30;;;32.50;99.90;;;;;;4190037;28;20082;-69
2021/09/15 09:30:38;;;;;;;6.28;4.90;;;32.50;99.90;;;;;;4192392;28;20145;-68
2021/09/15 09:32:45;;;;;;;6.22;4.63;;;32.50;99.90;;;;;;4191168;28;20115;-68
2021/09/15 09:34:50;;;;;;;6.68;4.38;;;32.50;99.90;;;;;;4191210;28;20560;-67
2021/09/15 09:37:21;;;;;;;7.20;4.60;;;32.50;99.90;;;;;;4191707;28;20051;-67
2021/09/15 09:39:42;;;;;;;6.18;4.57;;;32.40;99.90;;;;;;4176098;28;20515;-68
2021/09/15 09:41:47;;;;;;;4.78;4.28;;;32.40;99.90;;;;;;4191500;28;21104;-68
2021/09/15 09:43:55;;;;;;;7.90;4.43;;;32.40;99.90;;;;;;4190894;28;20053;-68
2021/09/15 09:46:21;;;;;;;6.32;4.10;;;32.40;99.90;;;;;;4190500;28;20048;-67
2021/09/15 09:48:29;;;;;;;9.40;4.30;;;32.30;99.90;;;;;;4174220;28;20029;-68
2021/09/15 09:50:33;;;;;;;5.35;4.32;;;32.30;99.90;;;;;;4219065;28;20612;-67
2021/09/15 09:52:50;;;;;;;4.95;4.28;;;32.30;99.90;;;;;;4192552;28;20036;-67
2021/09/15 09:55:03;;;;;;;6.00;3.70;;;32.20;99.90;;;;;;4179168;28;20059;-67
2021/09/15 09:57:07;;;;;;;4.78;4.20;;;32.20;99.90;;;;;;4191716;28;20056;-69
2021/09/15 09:59:13;;;;;;;5.25;4.10;;;32.20;99.90;;;;;;4192152;28;20044;-67
2021/09/15 10:01:18;;;;;;;5.75;4.22;;;32.20;99.90;;;;;;4191671;28;20106;-68
2021/09/15 10:03:22;;;;;;;7.05;4.55;;;32.20;99.90;;;;;;4175315;28;20057;-68
2021/09/15 10:05:27;;;;;;;8.63;4.45;;;32.20;99.90;;;;;;4191826;28;20040;-68
2021/09/15 10:07:32;;;;;;;6.88;4.40;;;32.20;99.90;;;;;;4191420;28;20048;-68
2021/09/15 10:09:39;;;;;;;7.20;4.43;;;32.10;99.90;;;;;;4193273;28;20123;-68
2021/09/15 10:11:44;;;;;;;5.65;4.20;;;32.10;99.90;;;;;;4175341;28;20072;-68
2021/09/15 10:13:49;;;;;;;6.70;4.93;;;32.10;99.90;;;;;;4175360;28;20124;-68
2021/09/15 10:16:04;;;;;;;9.18;6.38;;;32.00;99.90;;;;;;4190760;28;20564;-68
2021/09/15 10:18:10;;;;;;;16.02;8.70;;;32.00;99.90;;;;;;4191675;28;20052;-68
2021/09/15 10:20:15;;;;;;;12.52;9.88;;;32.00;99.90;;;;;;4160140;28;20527;-67
2021/09/15 10:22:33;;;;;;;12.95;8.50;;;31.90;99.90;;;;;;4191992;28;20036;-67
2021/09/15 10:24:54;;;;;;;12.43;6.95;;;31.90;99.90;;;;;;4191318;28;20068;-67
2021/09/15 10:26:59;;;;;;;8.85;7.13;;;31.90;99.90;;;;;;4191810;28;20094;-67
2021/09/15 10:29:30;;;;;;;9.15;7.43;;;31.90;99.90;;;;;;4190062;28;20145;-68
2021/09/15 10:31:58;;;;;;;12.50;7.53;;;31.80;99.90;;;;;;4191004;28;20617;-68
2021/09/15 10:34:03;;;;;;;12.50;7.13;;;31.80;99.90;;;;;;4189283;28;20041;-68
2021/09/15 10:36:13;;;;;;;9.60;6.88;;;31.60;99.90;;;;;;4191370;28;20040;-68
2021/09/15 10:38:21;;;;;;;8.95;6.40;;;31.60;99.90;;;;;;4224684;28;20058;-68
2021/09/15 10:40:29;;;;;;;8.57;5.80;;;31.60;99.90;;;;;;4173109;28;20080;-67
2021/09/15 10:42:46;;;;;;;9.88;5.93;;;31.50;99.90;;;;;;4175044;28;20086;-68
2021/09/15 10:45:09;;;;;;;9.52;5.70;;;31.40;99.90;;;;;;4191293;28;20245;-68
2021/09/15 10:47:16;;;;;;;11.02;6.15;;;31.30;99.90;;;;;;4191889;28;20083;-68
2021/09/15 10:49:23;;;;;;;9.25;6.00;;;31.40;99.90;;;;;;4175290;28;20076;-67
2021/09/15 10:51:27;;;;;;;7.80;5.22;;;31.20;99.90;;;;;;4191470;28;20047;-67
2021/09/15 10:53:32;;;;;;;12.05;5.50;;;31.20;99.90;;;;;;4190846;28;20071;-67
2021/09/15 10:55:44;;;;;;;10.52;5.82;;;31.10;99.90;;;;;;4192306;28;20087;-68
2021/09/15 10:57:49;;;;;;;11.50;8.60;;;31.20;99.90;;;;;;4190299;28;20056;-67
2021/09/15 11:00:01;;;;;;;9.95;6.72;;;31.10;99.90;;;;;;4189885;28;20082;-67
2021/09/15 11:02:05;;;;;;;8.20;5.97;;;31.10;99.90;;;;;;4186823;28;20126;-67
2021/09/15 11:04:12;;;;;;;8.48;5.57;;;31.00;99.90;;;;;;4192989;28;20048;-68
2021/09/15 11:06:19;;;;;;;7.78;6.40;;;31.10;99.90;;;;;;4176957;28;20107;-68
2021/09/15 11:08:34;;;;;;;9.35;6.82;;;31.10;99.90;;;;;;4190003;28;20051;-68
2021/09/15 11:10:40;;;;;;;9.35;5.40;;;31.00;99.90;;;;;;4194930;28;20036;-68
2021/09/15 11:12:46;;;;;;;9.70;5.85;;;30.90;99.90;;;;;;4191197;28;20123;-68